WetterOnline ( https://www.wetteronline.at )

Wetter aktuell Brünn

Aktuelles Wetter: Brünn - Turany (246m)

6-stündlich | Neueste Meldungen
Ortszeit Temperatur Wetter
Di, 29.09. 8:00 10.4° C bewölkt
Di, 29.09. 2:00 10.9° C bedeckt
Mo, 28.09. 20:00 10.9° C leichter Regen
Mo, 28.09. 14:00 11.0° C leichter Regen
Mo, 28.09. 8:00 9.2° C leichter Regen
Mo, 28.09. 2:00 9.3° C fast wolkenlos
So, 27.09. 20:00 11.5° C fast wolkenlos
So, 27.09. 14:00 12.4° C wolkig
Ortszeit Temperatur Wetter
Di, 29.09. 9:00 11.4° C bedeckt
Di, 29.09. 8:30 11° C bewölkt
Di, 29.09. 8:00 10.4° C bewölkt
Di, 29.09. 7:30 10° C leicht bewölkt
Di, 29.09. 7:00 10.0° C bewölkt
Di, 29.09. 6:30 10° C leicht bewölkt
Di, 29.09. 6:00 10.0° C wolkig
Di, 29.09. 5:30 10° C bedeckt
Ortszeit Relative Feuchte Sichtweite
Di, 29.09. 8:00 91% 25 km
Di, 29.09. 2:00 94% 12 km
Mo, 28.09. 20:00 98% 4.8 km
Mo, 28.09. 14:00 90% 25 km
Mo, 28.09. 8:00 89% 10 km
Mo, 28.09. 2:00 79% 35 km
So, 27.09. 20:00 71% 40 km
So, 27.09. 14:00 65% 60 km
Ortszeit Relative Feuchte Sichtweite
Di, 29.09. 9:00 86% 20 km
Di, 29.09. 8:30 87% >10 km
Di, 29.09. 8:00 91% 25 km
Di, 29.09. 7:30 93% >10 km
Di, 29.09. 7:00 92% 25 km
Di, 29.09. 6:30 93% >10 km
Di, 29.09. 6:00 93% 30 km
Di, 29.09. 5:30 93% >10 km
Ortszeit Niederschlagsmenge Niederschlagsart
Di, 29.09. 8:00 0.4 l/m2 in 12 Std. -
Di, 29.09. 2:00 0.4 l/m2 in 6 Std. Regen
Mo, 28.09. 20:00 5 l/m2 in 12 Std. Regen
Mo, 28.09. 14:00 4 l/m2 in 6 Std. Regen
Mo, 28.09. 8:00 3 l/m2 in 12 Std. Regen
Mo, 28.09. 2:00 0.0 l/m2 in 6 Std. -
So, 27.09. 20:00 0.0 l/m2 in 12 Std. -
So, 27.09. 14:00 0.0 l/m2 in 6 Std. -
Ortszeit Niederschlagsmenge Niederschlagsart
Di, 29.09. 9:00 0.0 l/m2 in 1 Std. -
Di, 29.09. 8:30 keine Meldung -
Di, 29.09. 8:00 0.0 l/m2 in 1 Std. -
Di, 29.09. 7:30 keine Meldung -
Di, 29.09. 7:00 0.0 l/m2 in 1 Std. -
Di, 29.09. 6:30 keine Meldung -
Di, 29.09. 6:00 0.0 l/m2 in 1 Std. -
Di, 29.09. 5:30 keine Meldung -
Ortszeit Stärke Spitze Richtung
km/h Bft. km/h Grad Sektor
Di, 29.09. 8:00 7 2 - 240° SW
Di, 29.09. 2:00 11 2 - 260° W
Mo, 28.09. 20:00 7 2 - 280° W
Mo, 28.09. 14:00 14 3 - 60° NO
Mo, 28.09. 8:00 14 3 - 30° NO
Mo, 28.09. 2:00 14 3 - 50° NO
So, 27.09. 20:00 14 3 - 50° NO
So, 27.09. 14:00 11 2 - 190° S
Ortszeit Stärke Spitze Richtung
km/h Bft. km/h Grad Sektor
Di, 29.09. 9:00 11 2 - 280° W
Di, 29.09. 8:30 9 2 - 260° W
Di, 29.09. 8:00 7 2 - 240° SW
Di, 29.09. 7:30 9 2 - 230° SW
Di, 29.09. 7:00 11 2 - 250° W
Di, 29.09. 6:30 17 3 - 260° W
Di, 29.09. 6:00 11 2 - 270° W
Di, 29.09. 5:30 11 2 - 260° W
Ortszeit Untergrenze Bedeckung Gattung
total tief tief mittel hoch
Di, 29.09. 8:00 150 m 7/8 6/8 Sc As -
Di, 29.09. 2:00 330 m 8/8 8/8 St - -
Mo, 28.09. 20:00 150 m 8/8 8/8 St - -
Mo, 28.09. 14:00 690 m 8/8 8/8 Sc - -
Mo, 28.09. 8:00 270 m 8/8 7/8 Sc Ns -
Mo, 28.09. 2:00 7500 m 1/8 0/8 - - Ci
So, 27.09. 20:00 7500 m 1/8 0/8 - - Ci
So, 27.09. 14:00 990 m 7/8 6/8 Cu Ac -
Ortszeit Bedeckungsgrad in Achtel und Wolkenuntergrenze
Di, 29.09. 9:00 5(450m) 7(780m) 8(2100m)
Di, 29.09. 8:30 1-2(480m) 5-7(630m)
Di, 29.09. 8:00 1(150m) 6(600m) 7(2100m)
Di, 29.09. 7:30 3-4(630m)
Di, 29.09. 7:00 3(540m) 7(2100m)
Di, 29.09. 6:30 1-2(540m)
Di, 29.09. 6:00 7(2100m)
Di, 29.09. 5:30 8(630m)
Ortszeit Luftdruck NN (hPa) Tendenz (hPa in 3 Std.)
Di, 29.09. 8:00 1014 + 0,6
Di, 29.09. 2:00 1013 + 0,1
Mo, 28.09. 20:00 1012 + 1,3
Mo, 28.09. 14:00 1010 + 0,3
Mo, 28.09. 8:00 1010 - 1,0
Mo, 28.09. 2:00 1012 - 0,1
So, 27.09. 20:00 1011 + 1,7
So, 27.09. 14:00 1009 + 1,4
Ortszeit Luftdruck NN (hPa) Tendenz (hPa in 3 Std.)
Di, 29.09. 9:00 1014 + 0,9
Di, 29.09. 8:30 1013 keine Meldung
Di, 29.09. 8:00 1014 + 0,6
Di, 29.09. 7:30 1013 keine Meldung
Di, 29.09. 7:00 1013 + 0,4
Di, 29.09. 6:30 1013 keine Meldung
Di, 29.09. 6:00 1013 + 0,6
Di, 29.09. 5:30 1013 keine Meldung
Ortszeit Schneehöhe (cm)
Di, 29.09. 8:00 -
Di, 29.09. 2:00 -
Mo, 28.09. 20:00 -
Mo, 28.09. 14:00 -
Mo, 28.09. 8:00 -
Mo, 28.09. 2:00 -
So, 27.09. 20:00 -
So, 27.09. 14:00 -
Ortszeit Schneehöhe (cm)
Di, 29.09. 9:00 -
Di, 29.09. 8:30 -
Di, 29.09. 8:00 -
Di, 29.09. 7:30 -
Di, 29.09. 7:00 -
Di, 29.09. 6:30 -
Di, 29.09. 6:00 -
Di, 29.09. 5:30 -
Link zu dieser Seite / Seite empfehlen

Das Wetter in ...